sensor_id;sensor_type;location;lat;lon;timestamp;P1;durP1;ratioP1;P2;durP2;ratioP2
703;SDS011;335;48.694;9.120;2023-07-09T00:00:03;4.27;;;3.60;;
703;SDS011;335;48.694;9.120;2023-07-09T00:02:29;4.23;;;3.40;;
703;SDS011;335;48.694;9.120;2023-07-09T00:04:54;3.67;;;3.37;;
703;SDS011;335;48.694;9.120;2023-07-09T00:07:32;3.87;;;3.63;;
703;SDS011;335;48.694;9.120;2023-07-09T00:09:58;3.20;;;2.90;;
703;SDS011;335;48.694;9.120;2023-07-09T00:12:24;3.70;;;3.40;;
703;SDS011;335;48.694;9.120;2023-07-09T00:14:50;3.70;;;3.20;;
703;SDS011;335;48.694;9.120;2023-07-09T00:17:31;3.13;;;2.93;;
703;SDS011;335;48.694;9.120;2023-07-09T00:19:58;3.47;;;3.20;;
703;SDS011;335;48.694;9.120;2023-07-09T00:22:24;3.87;;;3.47;;
703;SDS011;335;48.694;9.120;2023-07-09T00:24:51;4.40;;;3.57;;
703;SDS011;335;48.694;9.120;2023-07-09T00:27:21;3.97;;;3.60;;
703;SDS011;335;48.694;9.120;2023-07-09T00:29:48;6.13;;;3.80;;
703;SDS011;335;48.694;9.120;2023-07-09T00:32:14;4.00;;;3.77;;
703;SDS011;335;48.694;9.120;2023-07-09T00:34:41;7.43;;;4.30;;
703;SDS011;335;48.694;9.120;2023-07-09T00:37:11;4.10;;;3.80;;
703;SDS011;335;48.694;9.120;2023-07-09T00:39:37;4.13;;;3.73;;
703;SDS011;335;48.694;9.120;2023-07-09T00:42:05;4.00;;;3.70;;
703;SDS011;335;48.694;9.120;2023-07-09T00:44:32;6.13;;;3.53;;
703;SDS011;335;48.694;9.120;2023-07-09T00:49:39;4.53;;;3.87;;
703;SDS011;335;48.694;9.120;2023-07-09T00:52:24;4.67;;;4.33;;
703;SDS011;335;48.694;9.120;2023-07-09T00:54:58;5.70;;;4.33;;
703;SDS011;335;48.694;9.120;2023-07-09T00:57:28;5.00;;;4.60;;
703;SDS011;335;48.694;9.120;2023-07-09T00:59:55;4.20;;;3.90;;
703;SDS011;335;48.694;9.120;2023-07-09T01:02:23;4.20;;;3.80;;
703;SDS011;335;48.694;9.120;2023-07-09T01:04:53;4.43;;;4.03;;
703;SDS011;335;48.694;9.120;2023-07-09T01:07:20;5.53;;;4.50;;
703;SDS011;335;48.694;9.120;2023-07-09T01:09:46;3.87;;;3.57;;
703;SDS011;335;48.694;9.120;2023-07-09T01:12:12;4.80;;;4.37;;
703;SDS011;335;48.694;9.120;2023-07-09T01:14:39;4.27;;;3.87;;
703;SDS011;335;48.694;9.120;2023-07-09T01:17:05;4.83;;;3.87;;
703;SDS011;335;48.694;9.120;2023-07-09T01:19:36;5.10;;;3.90;;
703;SDS011;335;48.694;9.120;2023-07-09T01:22:11;3.90;;;3.60;;
703;SDS011;335;48.694;9.120;2023-07-09T01:25:00;4.87;;;4.47;;
703;SDS011;335;48.694;9.120;2023-07-09T01:27:42;4.20;;;3.90;;
703;SDS011;335;48.694;9.120;2023-07-09T01:30:11;4.10;;;3.80;;
703;SDS011;335;48.694;9.120;2023-07-09T01:32:41;3.87;;;3.57;;
703;SDS011;335;48.694;9.120;2023-07-09T01:35:11;3.63;;;3.33;;
703;SDS011;335;48.694;9.120;2023-07-09T01:37:38;3.90;;;3.60;;
703;SDS011;335;48.694;9.120;2023-07-09T01:40:04;5.03;;;3.63;;
703;SDS011;335;48.694;9.120;2023-07-09T01:42:32;5.50;;;3.90;;
703;SDS011;335;48.694;9.120;2023-07-09T01:44:57;4.27;;;3.97;;
703;SDS011;335;48.694;9.120;2023-07-09T01:47:23;5.40;;;3.97;;
703;SDS011;335;48.694;9.120;2023-07-09T01:49:52;4.40;;;4.00;;
703;SDS011;335;48.694;9.120;2023-07-09T01:52:22;4.57;;;4.17;;
703;SDS011;335;48.694;9.120;2023-07-09T01:54:49;4.40;;;4.00;;
703;SDS011;335;48.694;9.120;2023-07-09T01:57:25;4.20;;;3.87;;
703;SDS011;335;48.694;9.120;2023-07-09T01:59:58;4.40;;;3.97;;
703;SDS011;335;48.694;9.120;2023-07-09T02:02:24;4.87;;;4.40;;
703;SDS011;335;48.694;9.120;2023-07-09T02:04:54;4.87;;;4.53;;
703;SDS011;335;48.694;9.120;2023-07-09T02:07:20;4.00;;;3.70;;
703;SDS011;335;48.694;9.120;2023-07-09T02:09:47;5.83;;;4.60;;
703;SDS011;335;48.694;9.120;2023-07-09T02:12:12;5.00;;;4.20;;
703;SDS011;335;48.694;9.120;2023-07-09T02:14:39;4.20;;;4.00;;
703;SDS011;335;48.694;9.120;2023-07-09T02:17:05;4.67;;;4.10;;
703;SDS011;335;48.694;9.120;2023-07-09T02:19:30;3.80;;;3.50;;
703;SDS011;335;48.694;9.120;2023-07-09T02:21:56;4.50;;;4.10;;
703;SDS011;335;48.694;9.120;2023-07-09T02:24:22;5.27;;;4.90;;
703;SDS011;335;48.694;9.120;2023-07-09T02:26:51;5.00;;;4.60;;
703;SDS011;335;48.694;9.120;2023-07-09T02:29:17;4.37;;;3.90;;
703;SDS011;335;48.694;9.120;2023-07-09T02:31:43;6.87;;;3.57;;
703;SDS011;335;48.694;9.120;2023-07-09T02:34:09;5.03;;;4.20;;
703;SDS011;335;48.694;9.120;2023-07-09T02:36:34;4.73;;;4.43;;
703;SDS011;335;48.694;9.120;2023-07-09T02:38:59;4.20;;;3.90;;
703;SDS011;335;48.694;9.120;2023-07-09T02:41:25;4.30;;;3.73;;
703;SDS011;335;48.694;9.120;2023-07-09T02:43:50;4.67;;;4.27;;
703;SDS011;335;48.694;9.120;2023-07-09T02:46:16;3.87;;;3.57;;
703;SDS011;335;48.694;9.120;2023-07-09T02:48:41;3.80;;;3.50;;
703;SDS011;335;48.694;9.120;2023-07-09T02:51:06;4.10;;;3.80;;
703;SDS011;335;48.694;9.120;2023-07-09T02:53:31;7.07;;;3.83;;
703;SDS011;335;48.694;9.120;2023-07-09T02:55:57;3.90;;;3.60;;
703;SDS011;335;48.694;9.120;2023-07-09T02:58:22;4.37;;;4.00;;
703;SDS011;335;48.694;9.120;2023-07-09T03:00:50;4.50;;;4.10;;
703;SDS011;335;48.694;9.120;2023-07-09T03:03:18;3.90;;;3.60;;
703;SDS011;335;48.694;9.120;2023-07-09T03:05:47;5.57;;;4.40;;
703;SDS011;335;48.694;9.120;2023-07-09T03:08:12;3.73;;;3.50;;
703;SDS011;335;48.694;9.120;2023-07-09T03:10:39;6.10;;;4.60;;
703;SDS011;335;48.694;9.120;2023-07-09T03:13:04;4.53;;;4.13;;
703;SDS011;335;48.694;9.120;2023-07-09T03:15:30;4.30;;;4.00;;
703;SDS011;335;48.694;9.120;2023-07-09T03:17:56;4.67;;;4.37;;
703;SDS011;335;48.694;9.120;2023-07-09T03:20:21;4.20;;;3.80;;
703;SDS011;335;48.694;9.120;2023-07-09T03:22:46;4.33;;;3.93;;
703;SDS011;335;48.694;9.120;2023-07-09T03:25:12;5.20;;;4.80;;
703;SDS011;335;48.694;9.120;2023-07-09T03:27:37;5.20;;;4.70;;
703;SDS011;335;48.694;9.120;2023-07-09T03:30:02;4.50;;;4.10;;
703;SDS011;335;48.694;9.120;2023-07-09T03:32:28;4.70;;;4.20;;
703;SDS011;335;48.694;9.120;2023-07-09T03:34:53;4.40;;;4.10;;
703;SDS011;335;48.694;9.120;2023-07-09T03:37:18;4.27;;;3.87;;
703;SDS011;335;48.694;9.120;2023-07-09T03:39:47;4.53;;;4.00;;
703;SDS011;335;48.694;9.120;2023-07-09T03:42:12;4.73;;;4.10;;
703;SDS011;335;48.694;9.120;2023-07-09T03:44:38;4.57;;;4.20;;
703;SDS011;335;48.694;9.120;2023-07-09T03:47:03;4.53;;;4.13;;
703;SDS011;335;48.694;9.120;2023-07-09T03:49:29;4.90;;;4.60;;
703;SDS011;335;48.694;9.120;2023-07-09T03:51:54;4.83;;;4.53;;
703;SDS011;335;48.694;9.120;2023-07-09T03:54:19;4.87;;;4.47;;
703;SDS011;335;48.694;9.120;2023-07-09T03:56:45;5.63;;;5.03;;
703;SDS011;335;48.694;9.120;2023-07-09T03:59:10;4.60;;;4.30;;
703;SDS011;335;48.694;9.120;2023-07-09T04:01:36;5.03;;;4.50;;
703;SDS011;335;48.694;9.120;2023-07-09T04:04:01;5.17;;;4.77;;
703;SDS011;335;48.694;9.120;2023-07-09T04:06:27;4.30;;;4.00;;
703;SDS011;335;48.694;9.120;2023-07-09T04:08:53;5.13;;;4.70;;
703;SDS011;335;48.694;9.120;2023-07-09T04:11:18;4.97;;;4.47;;
703;SDS011;335;48.694;9.120;2023-07-09T04:13:43;5.27;;;4.77;;
703;SDS011;335;48.694;9.120;2023-07-09T04:16:09;4.10;;;3.80;;
703;SDS011;335;48.694;9.120;2023-07-09T04:18:35;7.00;;;4.60;;
703;SDS011;335;48.694;9.120;2023-07-09T04:21:01;4.77;;;4.37;;
703;SDS011;335;48.694;9.120;2023-07-09T04:23:26;4.40;;;4.10;;
703;SDS011;335;48.694;9.120;2023-07-09T04:25:51;4.90;;;4.40;;
703;SDS011;335;48.694;9.120;2023-07-09T04:28:17;4.40;;;3.90;;
703;SDS011;335;48.694;9.120;2023-07-09T04:30:49;5.60;;;5.20;;
703;SDS011;335;48.694;9.120;2023-07-09T04:33:15;5.30;;;4.60;;
703;SDS011;335;48.694;9.120;2023-07-09T04:35:42;4.03;;;3.73;;
703;SDS011;335;48.694;9.120;2023-07-09T04:38:09;4.27;;;3.97;;
703;SDS011;335;48.694;9.120;2023-07-09T04:40:34;4.37;;;4.07;;
703;SDS011;335;48.694;9.120;2023-07-09T04:42:59;4.67;;;4.37;;
703;SDS011;335;48.694;9.120;2023-07-09T04:45:25;4.37;;;4.07;;
703;SDS011;335;48.694;9.120;2023-07-09T04:47:50;4.70;;;4.40;;
703;SDS011;335;48.694;9.120;2023-07-09T04:50:17;5.07;;;4.77;;
703;SDS011;335;48.694;9.120;2023-07-09T04:52:42;4.23;;;3.83;;
703;SDS011;335;48.694;9.120;2023-07-09T04:55:07;4.93;;;4.33;;
703;SDS011;335;48.694;9.120;2023-07-09T04:57:33;5.20;;;4.60;;
703;SDS011;335;48.694;9.120;2023-07-09T04:59:59;8.63;;;5.47;;
703;SDS011;335;48.694;9.120;2023-07-09T05:02:24;5.07;;;4.67;;
703;SDS011;335;48.694;9.120;2023-07-09T05:04:49;4.63;;;4.23;;
703;SDS011;335;48.694;9.120;2023-07-09T05:07:15;5.00;;;4.60;;
703;SDS011;335;48.694;9.120;2023-07-09T05:09:40;5.07;;;4.67;;
703;SDS011;335;48.694;9.120;2023-07-09T05:12:06;5.00;;;4.53;;
703;SDS011;335;48.694;9.120;2023-07-09T05:14:32;4.80;;;4.40;;
703;SDS011;335;48.694;9.120;2023-07-09T05:16:57;8.10;;;4.53;;
703;SDS011;335;48.694;9.120;2023-07-09T05:19:22;4.90;;;4.50;;
703;SDS011;335;48.694;9.120;2023-07-09T05:21:48;5.10;;;4.60;;
703;SDS011;335;48.694;9.120;2023-07-09T05:24:13;4.37;;;4.00;;
703;SDS011;335;48.694;9.120;2023-07-09T05:26:38;5.07;;;4.63;;
703;SDS011;335;48.694;9.120;2023-07-09T05:29:04;5.10;;;4.70;;
703;SDS011;335;48.694;9.120;2023-07-09T05:31:30;5.00;;;4.50;;
703;SDS011;335;48.694;9.120;2023-07-09T05:33:56;4.80;;;4.50;;
703;SDS011;335;48.694;9.120;2023-07-09T05:36:21;5.20;;;4.80;;
703;SDS011;335;48.694;9.120;2023-07-09T05:38:47;5.40;;;4.90;;
703;SDS011;335;48.694;9.120;2023-07-09T05:41:12;4.50;;;4.10;;
703;SDS011;335;48.694;9.120;2023-07-09T05:43:38;4.93;;;4.63;;
703;SDS011;335;48.694;9.120;2023-07-09T05:46:04;5.00;;;4.53;;
703;SDS011;335;48.694;9.120;2023-07-09T05:48:30;5.13;;;4.70;;
703;SDS011;335;48.694;9.120;2023-07-09T05:50:55;4.07;;;3.77;;
703;SDS011;335;48.694;9.120;2023-07-09T05:53:21;4.57;;;4.23;;
703;SDS011;335;48.694;9.120;2023-07-09T05:55:47;4.80;;;4.40;;
703;SDS011;335;48.694;9.120;2023-07-09T05:58:12;3.90;;;3.67;;
703;SDS011;335;48.694;9.120;2023-07-09T06:00:37;6.70;;;4.23;;
703;SDS011;335;48.694;9.120;2023-07-09T06:03:04;4.20;;;3.83;;
703;SDS011;335;48.694;9.120;2023-07-09T06:05:32;4.30;;;4.00;;
703;SDS011;335;48.694;9.120;2023-07-09T06:07:58;8.23;;;5.00;;
703;SDS011;335;48.694;9.120;2023-07-09T06:10:23;4.73;;;4.43;;
703;SDS011;335;48.694;9.120;2023-07-09T06:12:49;4.27;;;3.97;;
703;SDS011;335;48.694;9.120;2023-07-09T06:15:14;4.70;;;4.33;;
703;SDS011;335;48.694;9.120;2023-07-09T06:17:39;4.83;;;4.10;;
703;SDS011;335;48.694;9.120;2023-07-09T06:20:05;5.20;;;4.80;;
703;SDS011;335;48.694;9.120;2023-07-09T06:22:31;4.13;;;3.83;;
703;SDS011;335;48.694;9.120;2023-07-09T06:24:56;6.93;;;4.70;;
703;SDS011;335;48.694;9.120;2023-07-09T06:27:21;4.10;;;3.80;;
703;SDS011;335;48.694;9.120;2023-07-09T06:29:47;4.50;;;4.10;;
703;SDS011;335;48.694;9.120;2023-07-09T06:32:12;4.10;;;3.80;;
703;SDS011;335;48.694;9.120;2023-07-09T06:34:37;4.50;;;4.20;;
703;SDS011;335;48.694;9.120;2023-07-09T06:37:03;4.50;;;4.27;;
703;SDS011;335;48.694;9.120;2023-07-09T06:39:29;4.37;;;4.17;;
703;SDS011;335;48.694;9.120;2023-07-09T06:41:55;5.60;;;4.40;;
703;SDS011;335;48.694;9.120;2023-07-09T06:44:20;5.30;;;4.90;;
703;SDS011;335;48.694;9.120;2023-07-09T06:46:46;4.40;;;4.10;;
703;SDS011;335;48.694;9.120;2023-07-09T06:49:12;5.90;;;4.10;;
703;SDS011;335;48.694;9.120;2023-07-09T06:51:38;4.80;;;4.20;;
703;SDS011;335;48.694;9.120;2023-07-09T06:54:03;5.30;;;4.90;;
703;SDS011;335;48.694;9.120;2023-07-09T06:56:30;4.40;;;4.10;;
703;SDS011;335;48.694;9.120;2023-07-09T06:58:56;4.83;;;4.43;;
703;SDS011;335;48.694;9.120;2023-07-09T07:01:21;5.00;;;4.60;;
703;SDS011;335;48.694;9.120;2023-07-09T07:03:47;4.47;;;4.17;;
703;SDS011;335;48.694;9.120;2023-07-09T07:06:12;4.33;;;4.03;;
703;SDS011;335;48.694;9.120;2023-07-09T07:08:37;5.37;;;4.20;;
703;SDS011;335;48.694;9.120;2023-07-09T07:11:03;7.50;;;4.70;;
703;SDS011;335;48.694;9.120;2023-07-09T07:16:05;6.33;;;4.40;;
703;SDS011;335;48.694;9.120;2023-07-09T07:18:32;4.80;;;4.33;;
703;SDS011;335;48.694;9.120;2023-07-09T07:20:58;5.03;;;4.53;;
703;SDS011;335;48.694;9.120;2023-07-09T07:23:24;4.97;;;4.57;;
703;SDS011;335;48.694;9.120;2023-07-09T07:25:49;4.57;;;4.27;;
703;SDS011;335;48.694;9.120;2023-07-09T07:28:14;3.90;;;3.60;;
703;SDS011;335;48.694;9.120;2023-07-09T07:30:40;4.47;;;4.07;;
703;SDS011;335;48.694;9.120;2023-07-09T07:33:05;4.00;;;3.60;;
703;SDS011;335;48.694;9.120;2023-07-09T07:35:31;4.53;;;4.13;;
703;SDS011;335;48.694;9.120;2023-07-09T07:37:57;4.10;;;3.80;;
703;SDS011;335;48.694;9.120;2023-07-09T07:40:22;4.07;;;3.77;;
703;SDS011;335;48.694;9.120;2023-07-09T07:42:48;4.50;;;4.20;;
703;SDS011;335;48.694;9.120;2023-07-09T07:45:13;4.60;;;4.37;;
703;SDS011;335;48.694;9.120;2023-07-09T07:47:38;4.10;;;3.80;;
703;SDS011;335;48.694;9.120;2023-07-09T07:50:04;3.43;;;3.23;;
703;SDS011;335;48.694;9.120;2023-07-09T07:52:30;4.53;;;4.23;;
703;SDS011;335;48.694;9.120;2023-07-09T07:54:56;3.80;;;3.50;;
703;SDS011;335;48.694;9.120;2023-07-09T07:57:21;4.10;;;3.80;;
703;SDS011;335;48.694;9.120;2023-07-09T07:59:49;3.60;;;3.30;;
703;SDS011;335;48.694;9.120;2023-07-09T08:02:14;4.93;;;3.37;;
703;SDS011;335;48.694;9.120;2023-07-09T08:04:40;3.57;;;3.30;;
703;SDS011;335;48.694;9.120;2023-07-09T08:07:06;3.30;;;3.10;;
703;SDS011;335;48.694;9.120;2023-07-09T08:09:33;3.60;;;3.40;;
703;SDS011;335;48.694;9.120;2023-07-09T08:11:58;3.30;;;3.10;;
703;SDS011;335;48.694;9.120;2023-07-09T08:14:24;3.70;;;3.43;;
703;SDS011;335;48.694;9.120;2023-07-09T08:16:49;3.47;;;3.17;;
703;SDS011;335;48.694;9.120;2023-07-09T08:19:17;3.70;;;3.50;;
703;SDS011;335;48.694;9.120;2023-07-09T08:21:43;3.80;;;3.50;;
703;SDS011;335;48.694;9.120;2023-07-09T08:24:09;3.40;;;3.20;;
703;SDS011;335;48.694;9.120;2023-07-09T08:26:34;3.70;;;3.50;;
703;SDS011;335;48.694;9.120;2023-07-09T08:29:00;5.13;;;3.60;;
703;SDS011;335;48.694;9.120;2023-07-09T08:31:25;3.17;;;2.97;;
703;SDS011;335;48.694;9.120;2023-07-09T08:33:51;3.93;;;3.60;;
703;SDS011;335;48.694;9.120;2023-07-09T08:36:16;3.50;;;3.30;;
703;SDS011;335;48.694;9.120;2023-07-09T08:38:42;3.10;;;3.00;;
703;SDS011;335;48.694;9.120;2023-07-09T08:41:08;3.33;;;3.13;;
703;SDS011;335;48.694;9.120;2023-07-09T08:43:58;3.53;;;3.30;;
703;SDS011;335;48.694;9.120;2023-07-09T08:49:12;2.80;;;2.70;;
703;SDS011;335;48.694;9.120;2023-07-09T08:51:41;3.23;;;3.03;;
703;SDS011;335;48.694;9.120;2023-07-09T08:54:09;3.70;;;3.13;;
703;SDS011;335;48.694;9.120;2023-07-09T08:56:48;2.80;;;2.60;;
703;SDS011;335;48.694;9.120;2023-07-09T08:59:14;2.97;;;2.80;;
703;SDS011;335;48.694;9.120;2023-07-09T09:01:45;3.30;;;3.00;;
703;SDS011;335;48.694;9.120;2023-07-09T09:04:18;3.10;;;2.80;;
703;SDS011;335;48.694;9.120;2023-07-09T09:06:47;2.70;;;2.60;;
703;SDS011;335;48.694;9.120;2023-07-09T09:11:53;2.20;;;2.10;;
703;SDS011;335;48.694;9.120;2023-07-09T09:14:32;2.90;;;2.70;;
703;SDS011;335;48.694;9.120;2023-07-09T09:16:59;3.10;;;2.90;;
703;SDS011;335;48.694;9.120;2023-07-09T09:19:36;3.00;;;2.80;;
703;SDS011;335;48.694;9.120;2023-07-09T09:22:13;2.83;;;2.60;;
703;SDS011;335;48.694;9.120;2023-07-09T09:24:53;3.37;;;3.10;;
703;SDS011;335;48.694;9.120;2023-07-09T09:27:22;2.73;;;2.53;;
703;SDS011;335;48.694;9.120;2023-07-09T09:29:47;3.10;;;2.90;;
703;SDS011;335;48.694;9.120;2023-07-09T09:32:26;3.33;;;3.13;;
703;SDS011;335;48.694;9.120;2023-07-09T09:34:52;2.73;;;2.63;;
703;SDS011;335;48.694;9.120;2023-07-09T09:37:29;2.90;;;2.70;;
703;SDS011;335;48.694;9.120;2023-07-09T09:39:55;4.20;;;3.80;;
703;SDS011;335;48.694;9.120;2023-07-09T09:42:23;2.40;;;2.30;;
703;SDS011;335;48.694;9.120;2023-07-09T09:44:49;3.93;;;3.73;;
703;SDS011;335;48.694;9.120;2023-07-09T09:47:14;2.83;;;2.63;;
703;SDS011;335;48.694;9.120;2023-07-09T09:49:40;3.50;;;3.20;;
703;SDS011;335;48.694;9.120;2023-07-09T09:52:16;3.00;;;2.70;;
703;SDS011;335;48.694;9.120;2023-07-09T09:54:52;3.67;;;3.37;;
703;SDS011;335;48.694;9.120;2023-07-09T09:57:22;3.87;;;3.57;;
703;SDS011;335;48.694;9.120;2023-07-09T09:59:48;2.93;;;2.73;;
703;SDS011;335;48.694;9.120;2023-07-09T10:02:22;3.13;;;2.93;;
703;SDS011;335;48.694;9.120;2023-07-09T10:04:48;3.27;;;3.07;;
703;SDS011;335;48.694;9.120;2023-07-09T10:07:30;3.30;;;3.10;;
703;SDS011;335;48.694;9.120;2023-07-09T10:09:59;3.63;;;3.30;;
703;SDS011;335;48.694;9.120;2023-07-09T10:15:16;3.00;;;2.90;;
703;SDS011;335;48.694;9.120;2023-07-09T10:17:45;3.43;;;3.20;;
703;SDS011;335;48.694;9.120;2023-07-09T10:20:29;3.13;;;2.83;;
703;SDS011;335;48.694;9.120;2023-07-09T10:23:19;2.97;;;2.80;;
703;SDS011;335;48.694;9.120;2023-07-09T10:25:55;3.20;;;3.00;;
703;SDS011;335;48.694;9.120;2023-07-09T10:34:10;2.72;;;2.58;;
703;SDS011;335;48.694;9.120;2023-07-09T10:39:45;3.30;;;3.03;;
703;SDS011;335;48.694;9.120;2023-07-09T10:42:03;2.95;;;2.75;;
703;SDS011;335;48.694;9.120;2023-07-09T10:44:34;4.32;;;3.17;;
703;SDS011;335;48.694;9.120;2023-07-09T10:47:03;3.28;;;2.88;;
703;SDS011;335;48.694;9.120;2023-07-09T10:49:35;3.80;;;3.35;;
703;SDS011;335;48.694;9.120;2023-07-09T10:54:41;2.53;;;2.40;;
703;SDS011;335;48.694;9.120;2023-07-09T10:57:17;2.78;;;2.67;;
703;SDS011;335;48.694;9.120;2023-07-09T10:59:44;3.22;;;3.03;;
703;SDS011;335;48.694;9.120;2023-07-09T11:04:46;2.60;;;2.40;;
703;SDS011;335;48.694;9.120;2023-07-09T11:07:14;2.75;;;2.60;;
703;SDS011;335;48.694;9.120;2023-07-09T11:09:43;2.92;;;2.72;;
703;SDS011;335;48.694;9.120;2023-07-09T11:12:15;3.35;;;3.05;;
703;SDS011;335;48.694;9.120;2023-07-09T11:15:02;2.90;;;2.70;;
703;SDS011;335;48.694;9.120;2023-07-09T11:17:29;3.25;;;3.05;;
703;SDS011;335;48.694;9.120;2023-07-09T11:19:56;2.88;;;2.67;;
703;SDS011;335;48.694;9.120;2023-07-09T11:22:25;2.85;;;2.75;;
703;SDS011;335;48.694;9.120;2023-07-09T11:25:04;2.55;;;2.45;;
703;SDS011;335;48.694;9.120;2023-07-09T11:27:52;3.03;;;2.83;;
703;SDS011;335;48.694;9.120;2023-07-09T11:30:26;3.00;;;2.90;;
703;SDS011;335;48.694;9.120;2023-07-09T11:32:53;3.70;;;3.40;;
703;SDS011;335;48.694;9.120;2023-07-09T11:35:22;3.38;;;3.17;;
703;SDS011;335;48.694;9.120;2023-07-09T11:37:49;3.35;;;3.13;;
703;SDS011;335;48.694;9.120;2023-07-09T11:40:15;3.22;;;2.90;;
703;SDS011;335;48.694;9.120;2023-07-09T11:42:48;4.57;;;3.45;;
703;SDS011;335;48.694;9.120;2023-07-09T11:45:16;3.22;;;3.00;;
703;SDS011;335;48.694;9.120;2023-07-09T11:47:50;3.38;;;3.17;;
703;SDS011;335;48.694;9.120;2023-07-09T11:50:28;3.67;;;3.35;;
703;SDS011;335;48.694;9.120;2023-07-09T11:52:57;3.60;;;3.28;;
703;SDS011;335;48.694;9.120;2023-07-09T11:55:36;3.78;;;3.47;;
703;SDS011;335;48.694;9.120;2023-07-09T11:58:05;3.55;;;3.35;;
703;SDS011;335;48.694;9.120;2023-07-09T12:00:33;4.07;;;3.65;;
703;SDS011;335;48.694;9.120;2023-07-09T12:03:02;3.83;;;3.63;;
703;SDS011;335;48.694;9.120;2023-07-09T12:05:29;4.18;;;3.88;;
703;SDS011;335;48.694;9.120;2023-07-09T12:07:55;4.07;;;3.78;;
703;SDS011;335;48.694;9.120;2023-07-09T12:10:23;3.78;;;3.47;;
703;SDS011;335;48.694;9.120;2023-07-09T12:12:57;4.00;;;3.50;;
703;SDS011;335;48.694;9.120;2023-07-09T12:15:24;5.68;;;3.83;;
703;SDS011;335;48.694;9.120;2023-07-09T12:17:55;3.75;;;3.30;;
703;SDS011;335;48.694;9.120;2023-07-09T12:20:25;4.28;;;3.83;;
703;SDS011;335;48.694;9.120;2023-07-09T12:22:55;3.83;;;3.53;;
703;SDS011;335;48.694;9.120;2023-07-09T12:25:24;3.42;;;3.13;;
703;SDS011;335;48.694;9.120;2023-07-09T12:27:52;4.03;;;3.72;;
703;SDS011;335;48.694;9.120;2023-07-09T12:30:18;3.85;;;3.45;;
703;SDS011;335;48.694;9.120;2023-07-09T12:32:44;3.85;;;3.55;;
703;SDS011;335;48.694;9.120;2023-07-09T12:35:19;3.83;;;3.53;;
703;SDS011;335;48.694;9.120;2023-07-09T12:37:46;2.97;;;2.67;;
703;SDS011;335;48.694;9.120;2023-07-09T12:40:13;3.72;;;3.50;;
703;SDS011;335;48.694;9.120;2023-07-09T12:42:41;3.90;;;3.60;;
703;SDS011;335;48.694;9.120;2023-07-09T12:45:13;4.25;;;3.45;;
703;SDS011;335;48.694;9.120;2023-07-09T12:47:39;3.28;;;2.97;;
703;SDS011;335;48.694;9.120;2023-07-09T12:50:15;3.67;;;3.10;;
703;SDS011;335;48.694;9.120;2023-07-09T12:52:51;3.28;;;3.08;;
703;SDS011;335;48.694;9.120;2023-07-09T12:55:22;3.35;;;3.15;;
703;SDS011;335;48.694;9.120;2023-07-09T12:57:50;3.42;;;3.15;;
703;SDS011;335;48.694;9.120;2023-07-09T13:00:16;3.28;;;3.08;;
703;SDS011;335;48.694;9.120;2023-07-09T13:02:42;2.97;;;2.63;;
703;SDS011;335;48.694;9.120;2023-07-09T13:05:18;3.05;;;2.85;;
703;SDS011;335;48.694;9.120;2023-07-09T13:07:52;3.65;;;3.35;;
703;SDS011;335;48.694;9.120;2023-07-09T13:10:21;3.03;;;2.83;;
703;SDS011;335;48.694;9.120;2023-07-09T13:12:51;3.00;;;2.80;;
703;SDS011;335;48.694;9.120;2023-07-09T13:17:48;3.17;;;2.95;;
703;SDS011;335;48.694;9.120;2023-07-09T13:20:13;3.35;;;3.00;;
703;SDS011;335;48.694;9.120;2023-07-09T13:22:39;3.58;;;3.28;;
703;SDS011;335;48.694;9.120;2023-07-09T13:25:07;3.17;;;2.97;;
703;SDS011;335;48.694;9.120;2023-07-09T13:27:33;3.35;;;3.15;;
703;SDS011;335;48.694;9.120;2023-07-09T13:29:58;2.70;;;2.50;;
703;SDS011;335;48.694;9.120;2023-07-09T13:32:24;3.03;;;2.83;;
703;SDS011;335;48.694;9.120;2023-07-09T13:34:50;2.80;;;2.60;;
703;SDS011;335;48.694;9.120;2023-07-09T13:37:15;2.75;;;2.55;;
703;SDS011;335;48.694;9.120;2023-07-09T13:39:41;3.03;;;2.72;;
703;SDS011;335;48.694;9.120;2023-07-09T13:42:11;3.85;;;3.60;;
703;SDS011;335;48.694;9.120;2023-07-09T13:44:38;3.10;;;2.87;;
703;SDS011;335;48.694;9.120;2023-07-09T13:47:04;3.40;;;3.10;;
703;SDS011;335;48.694;9.120;2023-07-09T13:49:30;3.43;;;3.07;;
703;SDS011;335;48.694;9.120;2023-07-09T13:51:57;5.23;;;3.50;;
703;SDS011;335;48.694;9.120;2023-07-09T13:54:24;3.10;;;2.90;;
703;SDS011;335;48.694;9.120;2023-07-09T13:56:51;3.27;;;2.80;;
703;SDS011;335;48.694;9.120;2023-07-09T13:59:21;2.83;;;2.60;;
703;SDS011;335;48.694;9.120;2023-07-09T14:01:48;3.50;;;2.60;;
703;SDS011;335;48.694;9.120;2023-07-09T14:04:15;6.10;;;3.37;;
703;SDS011;335;48.694;9.120;2023-07-09T14:06:42;3.33;;;2.90;;
703;SDS011;335;48.694;9.120;2023-07-09T14:09:10;3.10;;;2.90;;
703;SDS011;335;48.694;9.120;2023-07-09T14:11:37;3.00;;;2.70;;
703;SDS011;335;48.694;9.120;2023-07-09T14:14:19;3.17;;;2.50;;
703;SDS011;335;48.694;9.120;2023-07-09T14:16:48;5.20;;;3.30;;
703;SDS011;335;48.694;9.120;2023-07-09T14:19:14;2.67;;;2.50;;
703;SDS011;335;48.694;9.120;2023-07-09T14:21:41;3.67;;;3.03;;
703;SDS011;335;48.694;9.120;2023-07-09T14:24:12;3.33;;;3.00;;
703;SDS011;335;48.694;9.120;2023-07-09T14:26:41;4.27;;;3.37;;
703;SDS011;335;48.694;9.120;2023-07-09T14:29:07;6.10;;;3.77;;
703;SDS011;335;48.694;9.120;2023-07-09T14:31:32;3.20;;;3.00;;
703;SDS011;335;48.694;9.120;2023-07-09T14:34:07;3.30;;;2.80;;
703;SDS011;335;48.694;9.120;2023-07-09T14:36:55;2.93;;;2.73;;
703;SDS011;335;48.694;9.120;2023-07-09T14:39:22;2.60;;;2.50;;
703;SDS011;335;48.694;9.120;2023-07-09T14:41:47;3.23;;;2.93;;
703;SDS011;335;48.694;9.120;2023-07-09T14:44:17;3.20;;;2.90;;
703;SDS011;335;48.694;9.120;2023-07-09T14:46:47;4.27;;;2.70;;
703;SDS011;335;48.694;9.120;2023-07-09T14:49:13;3.77;;;3.57;;
703;SDS011;335;48.694;9.120;2023-07-09T14:51:38;3.67;;;3.37;;
703;SDS011;335;48.694;9.120;2023-07-09T14:54:08;3.70;;;3.40;;
703;SDS011;335;48.694;9.120;2023-07-09T14:56:56;3.53;;;3.10;;
703;SDS011;335;48.694;9.120;2023-07-09T14:59:23;3.80;;;3.40;;
703;SDS011;335;48.694;9.120;2023-07-09T15:01:48;4.37;;;3.33;;
703;SDS011;335;48.694;9.120;2023-07-09T15:04:30;3.10;;;2.90;;
703;SDS011;335;48.694;9.120;2023-07-09T15:06:57;3.10;;;2.90;;
703;SDS011;335;48.694;9.120;2023-07-09T15:09:24;3.20;;;3.00;;
703;SDS011;335;48.694;9.120;2023-07-09T15:12:12;3.10;;;2.90;;
703;SDS011;335;48.694;9.120;2023-07-09T15:14:42;4.00;;;3.60;;
703;SDS011;335;48.694;9.120;2023-07-09T15:17:09;3.00;;;2.80;;
703;SDS011;335;48.694;9.120;2023-07-09T15:19:36;3.60;;;3.30;;
703;SDS011;335;48.694;9.120;2023-07-09T15:22:01;4.40;;;4.00;;
703;SDS011;335;48.694;9.120;2023-07-09T15:24:28;3.67;;;3.27;;
703;SDS011;335;48.694;9.120;2023-07-09T15:26:55;3.13;;;2.93;;
703;SDS011;335;48.694;9.120;2023-07-09T15:29:22;5.30;;;3.10;;
703;SDS011;335;48.694;9.120;2023-07-09T15:31:48;3.10;;;2.57;;
703;SDS011;335;48.694;9.120;2023-07-09T15:34:13;3.17;;;2.60;;
703;SDS011;335;48.694;9.120;2023-07-09T15:36:40;2.97;;;2.40;;
703;SDS011;335;48.694;9.120;2023-07-09T15:39:09;3.40;;;2.90;;
703;SDS011;335;48.694;9.120;2023-07-09T15:41:35;3.03;;;2.83;;
703;SDS011;335;48.694;9.120;2023-07-09T15:44:00;3.30;;;2.97;;
703;SDS011;335;48.694;9.120;2023-07-09T15:46:26;4.07;;;3.77;;
703;SDS011;335;48.694;9.120;2023-07-09T15:48:51;6.37;;;5.80;;
703;SDS011;335;48.694;9.120;2023-07-09T15:51:21;5.30;;;4.80;;
703;SDS011;335;48.694;9.120;2023-07-09T15:53:46;5.73;;;5.30;;
703;SDS011;335;48.694;9.120;2023-07-09T15:56:20;3.70;;;3.50;;
703;SDS011;335;48.694;9.120;2023-07-09T15:58:49;3.37;;;3.00;;
703;SDS011;335;48.694;9.120;2023-07-09T16:01:16;3.10;;;2.90;;
703;SDS011;335;48.694;9.120;2023-07-09T16:03:49;3.03;;;2.83;;
703;SDS011;335;48.694;9.120;2023-07-09T16:06:16;2.73;;;2.53;;
703;SDS011;335;48.694;9.120;2023-07-09T16:08:42;2.77;;;2.67;;
703;SDS011;335;48.694;9.120;2023-07-09T16:13:47;6.07;;;5.57;;
703;SDS011;335;48.694;9.120;2023-07-09T16:16:16;3.20;;;2.90;;
703;SDS011;335;48.694;9.120;2023-07-09T16:18:43;3.57;;;3.27;;
703;SDS011;335;48.694;9.120;2023-07-09T16:21:13;5.10;;;4.70;;